Platitera Tonouranon — SX7180 — position and weather

sailwx.info

Track history (hours):
 
Tides and Currents Weather Stations Pressure Air Temp Water Temp Dewpoint Dewpoint Depression Visibility Wind Speed Wind Dir Waves Ship Positions

Platitera Tonouranon

Last reported at 2015-Jan-31 18:33 UTC. Time now 2015-Jan-31 19:18 UTC.
Position N 37°56' E 023°41'.

Length 55 m; draft 3.8 m.

Type: Ship (hazmat cat A). MMSI: 237038200.

Date/timePositionNaut miles runAvg speedWind from/ knotsBaromVisibWave heightAir tempDewpointWater temp
2015-Jan-31 18:33N 37°56' E 023°41'0 0.0
2015-Jan-31 17:33N 37°56' E 023°41'0 0.0
2015-Jan-31 16:34N 37°56' E 023°41'0 0.0
2015-Jan-31 15:34N 37°56' E 023°41'0 0.0
2015-Jan-31 14:33N 37°56' E 023°41'0 0.0
2015-Jan-31 13:34N 37°56' E 023°41'0 0.0
2015-Jan-31 12:33N 37°56' E 023°41'0 0.0
2015-Jan-31 11:34N 37°56' E 023°41'0 0.0
2015-Jan-31 10:33N 37°56' E 023°41'0 0.0
2015-Jan-31 09:33N 37°56' E 023°41'0 0.0
2015-Jan-31 08:33N 37°56' E 023°41'0 0.0
2015-Jan-31 07:33N 37°56' E 023°41'0 0.0
2015-Jan-31 06:33N 37°56' E 023°41'0 0.0
2015-Jan-30 22:12N 37°56' E 023°41'0 0.0
2015-Jan-30 21:34N 37°56' E 023°41'0 0.0
2015-Jan-30 20:33N 37°56' E 023°41'0 0.0
2015-Jan-30 19:34N 37°56' E 023°41'0 0.0
2015-Jan-30 18:34N 37°56' E 023°41'0 0.0
2015-Jan-30 17:34N 37°56' E 023°41'0 0.0
2015-Jan-30 16:34N 37°56' E 023°41'0 0.0
2015-Jan-30 15:34N 37°56' E 023°41'0 0.0
2015-Jan-30 14:34N 37°56' E 023°41'0 0.0
2015-Jan-30 13:34N 37°56' E 023°41'0 0.0
2015-Jan-30 12:34N 37°56' E 023°41'0 0.0
2015-Jan-30 11:34N 37°56' E 023°41'0 0.0
2015-Jan-30 10:33N 37°56' E 023°41'0 0.0
2015-Jan-30 09:33N 37°56' E 023°41'0 0.0
2015-Jan-30 08:33N 37°56' E 023°41'0 0.0
2015-Jan-30 07:33N 37°56' E 023°41'0 0.0
2015-Jan-30 06:34N 37°56' E 023°41'0 0.0
2015-Jan-29 17:29N 37°56' E 023°41'8 8.9
2015-Jan-29 16:33N 37°49' E 023°35'29 4.7
2015-Jan-29 10:27N 37°21' E 023°28'15 6.1
2015-Jan-29 08:04N 37°35' E 023°31'812.0
2015-Jan-29 07:22N 37°43' E 023°33'1012.1
2015-Jan-29 06:33N 37°53' E 023°38'4 4.2
2015-Jan-29 05:33N 37°56' E 023°41'0 0.0
2015-Jan-27 17:32N 37°56' E 023°41'8 7.8
2015-Jan-27 16:34N 37°51' E 023°34'11 3.5
2015-Jan-27 13:31N 37°43' E 023°25'7 1.1
2015-Jan-27 07:28N 37°43' E 023°34'1112.0
2015-Jan-27 06:34N 37°53' E 023°38'4 3.7
2015-Jan-27 05:34N 37°56' E 023°41'0 0.0
2015-Jan-26 17:24N 37°56' E 023°41'8 9.5
2015-Jan-26 16:34N 37°51' E 023°33'23 4.5
2015-Jan-26 11:26N 37°28' E 023°31'15 3.6
2015-Jan-26 07:22N 37°43' E 023°32'1012.0
2015-Jan-26 06:34N 37°51' E 023°37'6 5.5
2015-Jan-26 05:34N 37°56' E 023°41'1 0.0
2015-Jan-25 17:32N 37°56' E 023°40'1111.5
2015-Jan-25 16:33N 37°48' E 023°30'5 0.6
2015-Jan-25 07:19N 37°44' E 023°34'911.8
2015-Jan-25 06:33N 37°52' E 023°38'5 4.6
2015-Jan-25 05:32N 37°56' E 023°41'0 0.0
2015-Jan-23 13:33N 37°56' E 023°41'0 0.0
2015-Jan-23 12:33N 37°56' E 023°41'0 0.0
2015-Jan-23 11:33N 37°56' E 023°41'0 0.0
2015-Jan-23 10:33N 37°56' E 023°41'0 0.0
2015-Jan-23 09:33N 37°56' E 023°41'0 0.0
2015-Jan-22 17:33N 37°56' E 023°41'9 8.5
2015-Jan-22 16:33N 37°50' E 023°33'29 4.0
2015-Jan-22 09:18N 37°21' E 023°28'2211.5
2015-Jan-22 07:20N 37°43' E 023°33'911.8
2015-Jan-22 06:33N 37°52' E 023°38'5 5.1
2015-Jan-22 05:33N 37°56' E 023°41'  
Track history (hours):
 
Tides and Currents Weather Stations Pressure Air Temp Water Temp Dewpoint Dewpoint Depression Visibility Wind Speed Wind Dir Waves Ship Positions

Platitera Tonouranon

Last reported at 2015-Jan-31 18:33 UTC. Time now 2015-Jan-31 19:18 UTC.
Position N 37°56' E 023°41'.

Length 55 m; draft 3.8 m.

Type: Ship (hazmat cat A). MMSI: 237038200.

Date/timePositionNaut miles runAvg speedWind from/ knotsBaromVisibWave heightAir tempDewpointWater temp
2015-Jan-31 18:33N 37°56' E 023°41'0 0.0
2015-Jan-31 17:33N 37°56' E 023°41'0 0.0
2015-Jan-31 16:34N 37°56' E 023°41'0 0.0
2015-Jan-31 15:34N 37°56' E 023°41'0 0.0
2015-Jan-31 14:33N 37°56' E 023°41'0 0.0
2015-Jan-31 13:34N 37°56' E 023°41'0 0.0
2015-Jan-31 12:33N 37°56' E 023°41'0 0.0
2015-Jan-31 11:34N 37°56' E 023°41'0 0.0
2015-Jan-31 10:33N 37°56' E 023°41'0 0.0
2015-Jan-31 09:33N 37°56' E 023°41'0 0.0
2015-Jan-31 08:33N 37°56' E 023°41'0 0.0
2015-Jan-31 07:33N 37°56' E 023°41'0 0.0
2015-Jan-31 06:33N 37°56' E 023°41'0 0.0
2015-Jan-30 22:12N 37°56' E 023°41'0 0.0
2015-Jan-30 21:34N 37°56' E 023°41'0 0.0
2015-Jan-30 20:33N 37°56' E 023°41'0 0.0
2015-Jan-30 19:34N 37°56' E 023°41'0 0.0
2015-Jan-30 18:34N 37°56' E 023°41'0 0.0
2015-Jan-30 17:34N 37°56' E 023°41'0 0.0
2015-Jan-30 16:34N 37°56' E 023°41'0 0.0
2015-Jan-30 15:34N 37°56' E 023°41'0 0.0
2015-Jan-30 14:34N 37°56' E 023°41'0 0.0
2015-Jan-30 13:34N 37°56' E 023°41'0 0.0
2015-Jan-30 12:34N 37°56' E 023°41'0 0.0
2015-Jan-30 11:34N 37°56' E 023°41'0 0.0
2015-Jan-30 10:33N 37°56' E 023°41'0 0.0
2015-Jan-30 09:33N 37°56' E 023°41'0 0.0
2015-Jan-30 08:33N 37°56' E 023°41'0 0.0
2015-Jan-30 07:33N 37°56' E 023°41'0 0.0
2015-Jan-30 06:34N 37°56' E 023°41'0 0.0
2015-Jan-29 17:29N 37°56' E 023°41'8 8.9
2015-Jan-29 16:33N 37°49' E 023°35'29 4.7
2015-Jan-29 10:27N 37°21' E 023°28'15 6.1
2015-Jan-29 08:04N 37°35' E 023°31'812.0
2015-Jan-29 07:22N 37°43' E 023°33'1012.1
2015-Jan-29 06:33N 37°53' E 023°38'4 4.2
2015-Jan-29 05:33N 37°56' E 023°41'0 0.0
2015-Jan-27 17:32N 37°56' E 023°41'8 7.8
2015-Jan-27 16:34N 37°51' E 023°34'11 3.5
2015-Jan-27 13:31N 37°43' E 023°25'7 1.1
2015-Jan-27 07:28N 37°43' E 023°34'1112.0
2015-Jan-27 06:34N 37°53' E 023°38'4 3.7
2015-Jan-27 05:34N 37°56' E 023°41'0 0.0
2015-Jan-26 17:24N 37°56' E 023°41'8 9.5
2015-Jan-26 16:34N 37°51' E 023°33'23 4.5
2015-Jan-26 11:26N 37°28' E 023°31'15 3.6
2015-Jan-26 07:22N 37°43' E 023°32'1012.0
2015-Jan-26 06:34N 37°51' E 023°37'6 5.5
2015-Jan-26 05:34N 37°56' E 023°41'1 0.0
2015-Jan-25 17:32N 37°56' E 023°40'1111.5
2015-Jan-25 16:33N 37°48' E 023°30'5 0.6
2015-Jan-25 07:19N 37°44' E 023°34'911.8
2015-Jan-25 06:33N 37°52' E 023°38'5 4.6
2015-Jan-25 05:32N 37°56' E 023°41'0 0.0
2015-Jan-23 13:33N 37°56' E 023°41'0 0.0
2015-Jan-23 12:33N 37°56' E 023°41'0 0.0
2015-Jan-23 11:33N 37°56' E 023°41'0 0.0
2015-Jan-23 10:33N 37°56' E 023°41'0 0.0
2015-Jan-23 09:33N 37°56' E 023°41'0 0.0
2015-Jan-22 17:33N 37°56' E 023°41'9 8.5
2015-Jan-22 16:33N 37°50' E 023°33'29 4.0
2015-Jan-22 09:18N 37°21' E 023°28'2211.5
2015-Jan-22 07:20N 37°43' E 023°33'911.8
2015-Jan-22 06:33N 37°52' E 023°38'5 5.1
2015-Jan-22 05:33N 37°56' E 023°41'  

Dump ship's entire track history